sensor_id;sensor_type;location;lat;lon;timestamp;P1;durP1;ratioP1;P2;durP2;ratioP2
50900;SDS011;36879;51.416;6.678;2022-09-30T00:00:58;22.38;;;14.02;;
50900;SDS011;36879;51.416;6.678;2022-09-30T00:03:24;19.60;;;13.25;;
50900;SDS011;36879;51.416;6.678;2022-09-30T00:05:57;22.08;;;14.48;;
50900;SDS011;36879;51.416;6.678;2022-09-30T00:08:23;18.92;;;13.90;;
50900;SDS011;36879;51.416;6.678;2022-09-30T00:13:25;22.83;;;14.52;;
50900;SDS011;36879;51.416;6.678;2022-09-30T00:15:51;17.95;;;13.50;;
50900;SDS011;36879;51.416;6.678;2022-09-30T00:18:17;21.45;;;13.10;;
50900;SDS011;36879;51.416;6.678;2022-09-30T00:20:43;22.02;;;13.77;;
50900;SDS011;36879;51.416;6.678;2022-09-30T00:23:09;19.95;;;13.68;;
50900;SDS011;36879;51.416;6.678;2022-09-30T00:25:35;20.85;;;12.77;;
50900;SDS011;36879;51.416;6.678;2022-09-30T00:28:01;23.08;;;13.52;;
50900;SDS011;36879;51.416;6.678;2022-09-30T00:30:27;19.00;;;12.27;;
50900;SDS011;36879;51.416;6.678;2022-09-30T00:32:53;23.08;;;14.25;;
50900;SDS011;36879;51.416;6.678;2022-09-30T00:35:19;20.15;;;13.65;;
50900;SDS011;36879;51.416;6.678;2022-09-30T00:37:46;19.52;;;13.43;;
50900;SDS011;36879;51.416;6.678;2022-09-30T00:40:12;18.13;;;12.77;;
50900;SDS011;36879;51.416;6.678;2022-09-30T00:42:41;18.65;;;13.20;;
50900;SDS011;36879;51.416;6.678;2022-09-30T00:45:09;19.85;;;12.77;;
50900;SDS011;36879;51.416;6.678;2022-09-30T00:47:55;19.10;;;12.95;;
50900;SDS011;36879;51.416;6.678;2022-09-30T00:50:33;20.95;;;13.48;;
50900;SDS011;36879;51.416;6.678;2022-09-30T00:58:02;18.90;;;12.35;;
50900;SDS011;36879;51.416;6.678;2022-09-30T01:00:28;20.67;;;12.70;;
50900;SDS011;36879;51.416;6.678;2022-09-30T01:02:55;21.27;;;13.63;;
50900;SDS011;36879;51.416;6.678;2022-09-30T01:05:21;21.85;;;14.02;;
50900;SDS011;36879;51.416;6.678;2022-09-30T01:07:49;20.13;;;13.48;;
50900;SDS011;36879;51.416;6.678;2022-09-30T01:10:15;18.08;;;12.40;;
50900;SDS011;36879;51.416;6.678;2022-09-30T01:12:41;19.38;;;11.95;;
50900;SDS011;36879;51.416;6.678;2022-09-30T01:15:07;15.88;;;12.02;;
50900;SDS011;36879;51.416;6.678;2022-09-30T01:25:31;17.35;;;12.43;;
50900;SDS011;36879;51.416;6.678;2022-09-30T01:35:52;20.23;;;12.43;;
50900;SDS011;36879;51.416;6.678;2022-09-30T01:46:31;15.93;;;11.57;;
50900;SDS011;36879;51.416;6.678;2022-09-30T01:51:16;21.30;;;12.25;;
50900;SDS011;36879;51.416;6.678;2022-09-30T01:53:56;21.55;;;11.68;;
50900;SDS011;36879;51.416;6.678;2022-09-30T01:58:54;18.00;;;12.23;;
50900;SDS011;36879;51.416;6.678;2022-09-30T02:01:26;16.70;;;11.23;;
50900;SDS011;36879;51.416;6.678;2022-09-30T02:03:56;16.00;;;10.32;;
50900;SDS011;36879;51.416;6.678;2022-09-30T02:06:25;20.00;;;12.00;;
50900;SDS011;36879;51.416;6.678;2022-09-30T02:08:57;15.82;;;10.82;;
50900;SDS011;36879;51.416;6.678;2022-09-30T02:11:28;16.45;;;11.05;;
50900;SDS011;36879;51.416;6.678;2022-09-30T02:14:01;16.42;;;10.18;;
50900;SDS011;36879;51.416;6.678;2022-09-30T02:19:46;16.02;;;9.93;;
50900;SDS011;36879;51.416;6.678;2022-09-30T02:24:40;13.90;;;10.73;;
50900;SDS011;36879;51.416;6.678;2022-09-30T02:27:09;16.42;;;10.15;;
50900;SDS011;36879;51.416;6.678;2022-09-30T02:29:37;21.17;;;10.95;;
50900;SDS011;36879;51.416;6.678;2022-09-30T02:32:08;14.90;;;10.75;;
50900;SDS011;36879;51.416;6.678;2022-09-30T02:34:38;18.83;;;10.23;;
50900;SDS011;36879;51.416;6.678;2022-09-30T02:37:16;14.98;;;10.35;;
50900;SDS011;36879;51.416;6.678;2022-09-30T02:39:52;17.35;;;10.40;;
50900;SDS011;36879;51.416;6.678;2022-09-30T02:42:19;16.63;;;12.18;;
50900;SDS011;36879;51.416;6.678;2022-09-30T02:44:47;21.10;;;14.18;;
50900;SDS011;36879;51.416;6.678;2022-09-30T02:47:24;25.63;;;14.63;;
50900;SDS011;36879;51.416;6.678;2022-09-30T02:50:07;25.50;;;15.45;;
50900;SDS011;36879;51.416;6.678;2022-09-30T02:57:56;27.15;;;16.20;;
50900;SDS011;36879;51.416;6.678;2022-09-30T03:00:25;26.48;;;14.88;;
50900;SDS011;36879;51.416;6.678;2022-09-30T03:02:59;22.63;;;14.15;;
50900;SDS011;36879;51.416;6.678;2022-09-30T03:05:26;24.35;;;14.45;;
50900;SDS011;36879;51.416;6.678;2022-09-30T03:07:53;20.95;;;13.50;;
50900;SDS011;36879;51.416;6.678;2022-09-30T03:10:19;21.63;;;14.55;;
50900;SDS011;36879;51.416;6.678;2022-09-30T03:25:46;29.38;;;18.50;;
50900;SDS011;36879;51.416;6.678;2022-09-30T03:30:45;34.95;;;19.30;;
50900;SDS011;36879;51.416;6.678;2022-09-30T03:33:16;28.88;;;17.98;;
50900;SDS011;36879;51.416;6.678;2022-09-30T03:35:47;25.92;;;16.27;;
50900;SDS011;36879;51.416;6.678;2022-09-30T03:43:28;22.65;;;15.07;;
50900;SDS011;36879;51.416;6.678;2022-09-30T03:48:25;22.58;;;15.07;;
50900;SDS011;36879;51.416;6.678;2022-09-30T03:50:52;21.30;;;14.75;;
50900;SDS011;36879;51.416;6.678;2022-09-30T03:53:18;26.20;;;15.00;;
50900;SDS011;36879;51.416;6.678;2022-09-30T03:55:45;24.73;;;15.35;;
50900;SDS011;36879;51.416;6.678;2022-09-30T03:58:13;23.38;;;14.82;;
50900;SDS011;36879;51.416;6.678;2022-09-30T04:00:39;25.73;;;16.08;;
50900;SDS011;36879;51.416;6.678;2022-09-30T04:03:10;25.50;;;15.43;;
50900;SDS011;36879;51.416;6.678;2022-09-30T04:05:36;23.25;;;15.85;;
50900;SDS011;36879;51.416;6.678;2022-09-30T04:08:02;24.08;;;15.85;;
50900;SDS011;36879;51.416;6.678;2022-09-30T04:10:28;21.77;;;15.23;;
50900;SDS011;36879;51.416;6.678;2022-09-30T04:12:54;28.02;;;16.35;;
50900;SDS011;36879;51.416;6.678;2022-09-30T04:15:21;23.77;;;15.07;;
50900;SDS011;36879;51.416;6.678;2022-09-30T04:17:47;28.08;;;16.30;;
50900;SDS011;36879;51.416;6.678;2022-09-30T04:20:13;23.67;;;15.50;;
50900;SDS011;36879;51.416;6.678;2022-09-30T04:22:39;27.27;;;15.35;;
50900;SDS011;36879;51.416;6.678;2022-09-30T04:25:06;20.20;;;14.70;;
50900;SDS011;36879;51.416;6.678;2022-09-30T04:27:32;23.95;;;15.82;;
50900;SDS011;36879;51.416;6.678;2022-09-30T04:29:58;25.17;;;15.50;;
50900;SDS011;36879;51.416;6.678;2022-09-30T04:32:24;23.08;;;14.55;;
50900;SDS011;36879;51.416;6.678;2022-09-30T04:34:50;20.80;;;14.20;;
50900;SDS011;36879;51.416;6.678;2022-09-30T04:37:18;21.00;;;15.35;;
50900;SDS011;36879;51.416;6.678;2022-09-30T04:39:44;19.90;;;14.82;;
50900;SDS011;36879;51.416;6.678;2022-09-30T04:42:10;24.48;;;16.88;;
50900;SDS011;36879;51.416;6.678;2022-09-30T04:44:36;22.13;;;15.05;;
50900;SDS011;36879;51.416;6.678;2022-09-30T04:47:02;25.02;;;15.55;;
50900;SDS011;36879;51.416;6.678;2022-09-30T04:49:28;24.77;;;16.27;;
50900;SDS011;36879;51.416;6.678;2022-09-30T04:51:54;25.35;;;17.02;;
50900;SDS011;36879;51.416;6.678;2022-09-30T04:54:20;24.25;;;16.05;;
50900;SDS011;36879;51.416;6.678;2022-09-30T04:56:46;24.25;;;16.00;;
50900;SDS011;36879;51.416;6.678;2022-09-30T04:59:12;25.35;;;16.73;;
50900;SDS011;36879;51.416;6.678;2022-09-30T05:01:38;23.83;;;16.95;;
50900;SDS011;36879;51.416;6.678;2022-09-30T05:04:06;25.83;;;17.20;;
50900;SDS011;36879;51.416;6.678;2022-09-30T05:06:32;22.00;;;17.17;;
50900;SDS011;36879;51.416;6.678;2022-09-30T05:08:58;31.50;;;17.92;;
50900;SDS011;36879;51.416;6.678;2022-09-30T05:11:24;21.38;;;15.93;;
50900;SDS011;36879;51.416;6.678;2022-09-30T05:13:50;21.65;;;16.42;;
50900;SDS011;36879;51.416;6.678;2022-09-30T05:16:16;24.00;;;16.23;;
50900;SDS011;36879;51.416;6.678;2022-09-30T05:18:42;31.90;;;17.48;;
50900;SDS011;36879;51.416;6.678;2022-09-30T05:21:10;25.92;;;16.73;;
50900;SDS011;36879;51.416;6.678;2022-09-30T05:23:36;28.00;;;17.35;;
50900;SDS011;36879;51.416;6.678;2022-09-30T05:26:03;28.10;;;18.70;;
50900;SDS011;36879;51.416;6.678;2022-09-30T05:28:29;23.80;;;16.17;;
50900;SDS011;36879;51.416;6.678;2022-09-30T05:33:28;26.58;;;16.33;;
50900;SDS011;36879;51.416;6.678;2022-09-30T05:35:54;19.20;;;15.18;;
50900;SDS011;36879;51.416;6.678;2022-09-30T05:38:23;24.45;;;14.68;;
50900;SDS011;36879;51.416;6.678;2022-09-30T05:40:49;25.27;;;16.00;;
50900;SDS011;36879;51.416;6.678;2022-09-30T05:43:15;23.67;;;15.05;;
50900;SDS011;36879;51.416;6.678;2022-09-30T05:45:41;24.55;;;16.25;;
50900;SDS011;36879;51.416;6.678;2022-09-30T05:48:07;25.63;;;15.38;;
50900;SDS011;36879;51.416;6.678;2022-09-30T05:50:33;29.02;;;16.08;;
50900;SDS011;36879;51.416;6.678;2022-09-30T05:52:59;25.83;;;17.52;;
50900;SDS011;36879;51.416;6.678;2022-09-30T05:55:25;27.90;;;16.65;;
50900;SDS011;36879;51.416;6.678;2022-09-30T05:57:51;24.15;;;16.40;;
50900;SDS011;36879;51.416;6.678;2022-09-30T06:00:18;21.75;;;15.60;;
50900;SDS011;36879;51.416;6.678;2022-09-30T06:02:44;25.13;;;15.57;;
50900;SDS011;36879;51.416;6.678;2022-09-30T06:05:11;24.40;;;15.65;;
50900;SDS011;36879;51.416;6.678;2022-09-30T06:07:37;39.03;;;22.90;;
50900;SDS011;36879;51.416;6.678;2022-09-30T06:10:05;30.60;;;17.55;;
50900;SDS011;36879;51.416;6.678;2022-09-30T06:12:32;24.27;;;15.85;;
50900;SDS011;36879;51.416;6.678;2022-09-30T06:14:59;26.85;;;16.00;;
50900;SDS011;36879;51.416;6.678;2022-09-30T06:17:25;27.75;;;18.27;;
50900;SDS011;36879;51.416;6.678;2022-09-30T06:19:51;27.98;;;17.58;;
50900;SDS011;36879;51.416;6.678;2022-09-30T06:22:17;30.63;;;19.10;;
50900;SDS011;36879;51.416;6.678;2022-09-30T06:24:43;25.50;;;17.20;;
50900;SDS011;36879;51.416;6.678;2022-09-30T06:27:10;38.65;;;20.58;;
50900;SDS011;36879;51.416;6.678;2022-09-30T06:29:36;29.77;;;20.08;;
50900;SDS011;36879;51.416;6.678;2022-09-30T06:32:02;30.63;;;18.23;;
50900;SDS011;36879;51.416;6.678;2022-09-30T06:34:28;32.17;;;19.25;;
50900;SDS011;36879;51.416;6.678;2022-09-30T06:36:54;35.42;;;20.85;;
50900;SDS011;36879;51.416;6.678;2022-09-30T06:39:20;33.28;;;23.15;;
50900;SDS011;36879;51.416;6.678;2022-09-30T06:41:46;35.05;;;22.65;;
50900;SDS011;36879;51.416;6.678;2022-09-30T06:44:13;37.30;;;24.67;;
50900;SDS011;36879;51.416;6.678;2022-09-30T06:46:39;39.05;;;23.40;;
50900;SDS011;36879;51.416;6.678;2022-09-30T06:49:05;33.53;;;22.50;;
50900;SDS011;36879;51.416;6.678;2022-09-30T06:51:31;37.95;;;23.50;;
50900;SDS011;36879;51.416;6.678;2022-09-30T06:53:58;33.83;;;24.13;;
50900;SDS011;36879;51.416;6.678;2022-09-30T06:56:25;43.47;;;25.17;;
50900;SDS011;36879;51.416;6.678;2022-09-30T06:58:51;33.08;;;22.98;;
50900;SDS011;36879;51.416;6.678;2022-09-30T07:01:17;35.15;;;22.95;;
50900;SDS011;36879;51.416;6.678;2022-09-30T07:03:44;31.00;;;21.98;;
50900;SDS011;36879;51.416;6.678;2022-09-30T07:06:11;39.08;;;22.85;;
50900;SDS011;36879;51.416;6.678;2022-09-30T07:08:37;35.28;;;22.10;;
50900;SDS011;36879;51.416;6.678;2022-09-30T07:11:04;36.05;;;24.50;;
50900;SDS011;36879;51.416;6.678;2022-09-30T07:13:36;37.90;;;23.25;;
50900;SDS011;36879;51.416;6.678;2022-09-30T07:16:02;40.05;;;25.63;;
50900;SDS011;36879;51.416;6.678;2022-09-30T07:18:28;38.33;;;28.25;;
50900;SDS011;36879;51.416;6.678;2022-09-30T07:20:54;37.00;;;26.08;;
50900;SDS011;36879;51.416;6.678;2022-09-30T07:23:21;39.85;;;28.40;;
50900;SDS011;36879;51.416;6.678;2022-09-30T07:25:56;40.05;;;27.80;;
50900;SDS011;36879;51.416;6.678;2022-09-30T07:28:24;44.58;;;26.73;;
50900;SDS011;36879;51.416;6.678;2022-09-30T07:30:53;41.63;;;27.55;;
50900;SDS011;36879;51.416;6.678;2022-09-30T07:33:20;48.70;;;30.35;;
50900;SDS011;36879;51.416;6.678;2022-09-30T07:35:52;46.25;;;30.00;;
50900;SDS011;36879;51.416;6.678;2022-09-30T07:38:19;47.85;;;29.20;;
50900;SDS011;36879;51.416;6.678;2022-09-30T07:40:57;43.63;;;27.75;;
50900;SDS011;36879;51.416;6.678;2022-09-30T07:43:23;41.38;;;28.27;;
50900;SDS011;36879;51.416;6.678;2022-09-30T07:45:50;50.28;;;29.85;;
50900;SDS011;36879;51.416;6.678;2022-09-30T07:48:18;47.60;;;29.38;;
50900;SDS011;36879;51.416;6.678;2022-09-30T07:51:03;49.03;;;30.75;;
50900;SDS011;36879;51.416;6.678;2022-09-30T07:53:29;44.50;;;27.33;;
50900;SDS011;36879;51.416;6.678;2022-09-30T07:56:01;46.10;;;28.00;;
50900;SDS011;36879;51.416;6.678;2022-09-30T07:58:28;48.80;;;29.65;;
50900;SDS011;36879;51.416;6.678;2022-09-30T08:00:54;48.67;;;28.48;;
50900;SDS011;36879;51.416;6.678;2022-09-30T08:03:20;46.47;;;28.45;;
50900;SDS011;36879;51.416;6.678;2022-09-30T08:05:46;47.50;;;29.52;;
50900;SDS011;36879;51.416;6.678;2022-09-30T08:08:13;45.63;;;30.02;;
50900;SDS011;36879;51.416;6.678;2022-09-30T08:10:39;50.58;;;30.58;;
50900;SDS011;36879;51.416;6.678;2022-09-30T08:13:05;52.20;;;29.45;;
50900;SDS011;36879;51.416;6.678;2022-09-30T08:15:32;46.28;;;30.27;;
50900;SDS011;36879;51.416;6.678;2022-09-30T08:17:58;46.45;;;29.17;;
50900;SDS011;36879;51.416;6.678;2022-09-30T08:20:24;45.40;;;29.23;;
50900;SDS011;36879;51.416;6.678;2022-09-30T08:22:54;45.88;;;28.38;;
50900;SDS011;36879;51.416;6.678;2022-09-30T08:25:20;41.00;;;28.90;;
50900;SDS011;36879;51.416;6.678;2022-09-30T08:27:46;43.72;;;26.77;;
50900;SDS011;36879;51.416;6.678;2022-09-30T08:30:12;49.50;;;26.77;;
50900;SDS011;36879;51.416;6.678;2022-09-30T08:32:38;36.75;;;23.13;;
50900;SDS011;36879;51.416;6.678;2022-09-30T08:35:04;38.42;;;21.42;;
50900;SDS011;36879;51.416;6.678;2022-09-30T08:37:30;34.50;;;23.70;;
50900;SDS011;36879;51.416;6.678;2022-09-30T08:39:56;31.77;;;19.42;;
50900;SDS011;36879;51.416;6.678;2022-09-30T08:44:55;26.38;;;16.48;;
50900;SDS011;36879;51.416;6.678;2022-09-30T08:52:43;21.50;;;14.38;;
50900;SDS011;36879;51.416;6.678;2022-09-30T08:55:14;23.67;;;13.93;;
50900;SDS011;36879;51.416;6.678;2022-09-30T08:57:43;23.90;;;14.30;;
50900;SDS011;36879;51.416;6.678;2022-09-30T09:00:11;21.15;;;12.95;;
50900;SDS011;36879;51.416;6.678;2022-09-30T09:05:06;22.30;;;12.25;;
50900;SDS011;36879;51.416;6.678;2022-09-30T09:20:36;17.23;;;12.13;;
50900;SDS011;36879;51.416;6.678;2022-09-30T09:23:07;17.90;;;10.88;;
50900;SDS011;36879;51.416;6.678;2022-09-30T09:25:34;17.05;;;11.75;;
50900;SDS011;36879;51.416;6.678;2022-09-30T09:28:00;19.67;;;12.38;;
50900;SDS011;36879;51.416;6.678;2022-09-30T09:30:35;21.90;;;12.65;;
50900;SDS011;36879;51.416;6.678;2022-09-30T09:33:17;18.58;;;12.60;;
50900;SDS011;36879;51.416;6.678;2022-09-30T09:44:07;17.83;;;11.32;;
50900;SDS011;36879;51.416;6.678;2022-09-30T09:48:33;16.05;;;11.68;;
50900;SDS011;36879;51.416;6.678;2022-09-30T09:56:09;16.17;;;11.25;;
50900;SDS011;36879;51.416;6.678;2022-09-30T09:59:02;21.55;;;12.18;;
50900;SDS011;36879;51.416;6.678;2022-09-30T10:01:29;16.35;;;11.25;;
50900;SDS011;36879;51.416;6.678;2022-09-30T10:06:50;16.50;;;11.07;;
50900;SDS011;36879;51.416;6.678;2022-09-30T10:09:35;17.48;;;11.93;;
50900;SDS011;36879;51.416;6.678;2022-09-30T10:14:43;17.70;;;10.20;;
50900;SDS011;36879;51.416;6.678;2022-09-30T10:17:19;19.73;;;10.45;;
50900;SDS011;36879;51.416;6.678;2022-09-30T10:19:50;15.45;;;10.52;;
50900;SDS011;36879;51.416;6.678;2022-09-30T10:22:17;13.68;;;9.65;;
50900;SDS011;36879;51.416;6.678;2022-09-30T10:24:44;16.92;;;10.82;;
50900;SDS011;36879;51.416;6.678;2022-09-30T10:27:26;18.00;;;9.88;;
50900;SDS011;36879;51.416;6.678;2022-09-30T10:29:53;17.90;;;9.20;;
50900;SDS011;36879;51.416;6.678;2022-09-30T10:32:19;14.13;;;9.38;;
50900;SDS011;36879;51.416;6.678;2022-09-30T10:34:45;13.18;;;8.40;;
50900;SDS011;36879;51.416;6.678;2022-09-30T10:37:20;13.02;;;9.10;;
50900;SDS011;36879;51.416;6.678;2022-09-30T10:39:57;11.00;;;8.18;;
50900;SDS011;36879;51.416;6.678;2022-09-30T10:42:25;13.80;;;8.18;;
50900;SDS011;36879;51.416;6.678;2022-09-30T10:47:19;12.85;;;7.35;;
50900;SDS011;36879;51.416;6.678;2022-09-30T10:49:47;11.40;;;7.57;;
50900;SDS011;36879;51.416;6.678;2022-09-30T10:57:13;11.00;;;7.47;;
50900;SDS011;36879;51.416;6.678;2022-09-30T10:59:39;8.75;;;6.53;;
50900;SDS011;36879;51.416;6.678;2022-09-30T11:02:24;10.98;;;6.25;;
50900;SDS011;36879;51.416;6.678;2022-09-30T11:16:00;11.82;;;7.55;;
50900;SDS011;36879;51.416;6.678;2022-09-30T11:18:36;11.77;;;7.57;;
50900;SDS011;36879;51.416;6.678;2022-09-30T11:21:05;17.23;;;7.97;;
50900;SDS011;36879;51.416;6.678;2022-09-30T11:23:43;11.40;;;7.47;;
50900;SDS011;36879;51.416;6.678;2022-09-30T11:26:20;10.25;;;7.32;;
50900;SDS011;36879;51.416;6.678;2022-09-30T11:29:00;10.27;;;6.70;;
50900;SDS011;36879;51.416;6.678;2022-09-30T11:31:42;12.77;;;6.90;;
50900;SDS011;36879;51.416;6.678;2022-09-30T11:36:54;12.43;;;7.03;;
50900;SDS011;36879;51.416;6.678;2022-09-30T11:41:57;9.48;;;6.70;;
50900;SDS011;36879;51.416;6.678;2022-09-30T11:44:32;9.82;;;6.80;;
50900;SDS011;36879;51.416;6.678;2022-09-30T11:47:09;8.50;;;6.00;;
50900;SDS011;36879;51.416;6.678;2022-09-30T11:57:24;10.20;;;5.75;;
50900;SDS011;36879;51.416;6.678;2022-09-30T12:05:09;7.03;;;3.33;;
50900;SDS011;36879;51.416;6.678;2022-09-30T12:07:37;6.37;;;4.23;;
50900;SDS011;36879;51.416;6.678;2022-09-30T12:16:03;4.15;;;2.92;;
50900;SDS011;36879;51.416;6.678;2022-09-30T12:18:32;6.88;;;2.78;;
50900;SDS011;36879;51.416;6.678;2022-09-30T12:21:02;6.53;;;4.05;;
50900;SDS011;36879;51.416;6.678;2022-09-30T12:25:58;8.13;;;2.90;;
50900;SDS011;36879;51.416;6.678;2022-09-30T12:33:38;5.50;;;3.50;;
50900;SDS011;36879;51.416;6.678;2022-09-30T12:36:31;6.20;;;2.80;;
50900;SDS011;36879;51.416;6.678;2022-09-30T12:44:43;5.20;;;2.83;;
50900;SDS011;36879;51.416;6.678;2022-09-30T12:47:33;3.15;;;2.42;;
50900;SDS011;36879;51.416;6.678;2022-09-30T12:50:02;4.63;;;2.40;;
50900;SDS011;36879;51.416;6.678;2022-09-30T12:52:31;4.15;;;2.85;;
50900;SDS011;36879;51.416;6.678;2022-09-30T12:55:00;4.03;;;2.60;;
50900;SDS011;36879;51.416;6.678;2022-09-30T12:57:31;4.32;;;2.88;;
50900;SDS011;36879;51.416;6.678;2022-09-30T13:00:32;4.00;;;2.65;;
50900;SDS011;36879;51.416;6.678;2022-09-30T13:02:55;4.68;;;3.00;;
50900;SDS011;36879;51.416;6.678;2022-09-30T13:10:33;3.25;;;2.70;;
50900;SDS011;36879;51.416;6.678;2022-09-30T13:26:02;4.07;;;2.88;;
50900;SDS011;36879;51.416;6.678;2022-09-30T13:28:29;5.72;;;3.20;;
50900;SDS011;36879;51.416;6.678;2022-09-30T13:31:18;3.45;;;2.47;;
50900;SDS011;36879;51.416;6.678;2022-09-30T13:36:29;4.22;;;2.40;;
50900;SDS011;36879;51.416;6.678;2022-09-30T13:41:40;3.45;;;2.65;;
50900;SDS011;36879;51.416;6.678;2022-09-30T13:44:08;7.32;;;2.33;;
50900;SDS011;36879;51.416;6.678;2022-09-30T13:46:39;3.97;;;2.33;;
50900;SDS011;36879;51.416;6.678;2022-09-30T13:49:12;3.33;;;2.28;;
50900;SDS011;36879;51.416;6.678;2022-09-30T13:51:39;3.17;;;2.45;;
50900;SDS011;36879;51.416;6.678;2022-09-30T13:54:08;2.90;;;1.90;;
50900;SDS011;36879;51.416;6.678;2022-09-30T13:56:37;3.10;;;1.92;;
50900;SDS011;36879;51.416;6.678;2022-09-30T14:01:53;3.13;;;1.77;;
50900;SDS011;36879;51.416;6.678;2022-09-30T14:22:38;3.85;;;2.17;;
50900;SDS011;36879;51.416;6.678;2022-09-30T14:25:10;3.10;;;2.10;;
50900;SDS011;36879;51.416;6.678;2022-09-30T14:27:44;4.80;;;2.28;;
50900;SDS011;36879;51.416;6.678;2022-09-30T14:30:19;4.53;;;3.03;;
50900;SDS011;36879;51.416;6.678;2022-09-30T14:32:54;2.90;;;2.03;;
50900;SDS011;36879;51.416;6.678;2022-09-30T14:40:17;3.47;;;2.08;;
50900;SDS011;36879;51.416;6.678;2022-09-30T14:42:44;3.60;;;2.28;;
50900;SDS011;36879;51.416;6.678;2022-09-30T14:45:15;3.38;;;1.80;;
50900;SDS011;36879;51.416;6.678;2022-09-30T14:47:43;4.03;;;1.65;;
50900;SDS011;36879;51.416;6.678;2022-09-30T14:50:13;3.00;;;2.00;;
50900;SDS011;36879;51.416;6.678;2022-09-30T14:52:41;2.50;;;1.73;;
50900;SDS011;36879;51.416;6.678;2022-09-30T14:55:26;2.95;;;1.60;;
50900;SDS011;36879;51.416;6.678;2022-09-30T14:58:37;4.88;;;1.50;;
50900;SDS011;36879;51.416;6.678;2022-09-30T15:00:39;2.70;;;1.85;;
50900;SDS011;36879;51.416;6.678;2022-09-30T15:03:09;2.00;;;1.30;;
50900;SDS011;36879;51.416;6.678;2022-09-30T15:05:35;2.78;;;1.65;;
50900;SDS011;36879;51.416;6.678;2022-09-30T15:08:01;2.38;;;1.50;;
50900;SDS011;36879;51.416;6.678;2022-09-30T15:10:27;3.70;;;1.58;;
50900;SDS011;36879;51.416;6.678;2022-09-30T15:12:54;2.42;;;1.40;;
50900;SDS011;36879;51.416;6.678;2022-09-30T15:15:25;4.30;;;1.40;;
50900;SDS011;36879;51.416;6.678;2022-09-30T15:17:52;4.93;;;1.60;;
50900;SDS011;36879;51.416;6.678;2022-09-30T15:22:49;1.08;;;0.75;;
50900;SDS011;36879;51.416;6.678;2022-09-30T15:25:16;1.33;;;1.08;;
50900;SDS011;36879;51.416;6.678;2022-09-30T15:27:42;4.82;;;2.47;;
50900;SDS011;36879;51.416;6.678;2022-09-30T15:32:38;2.35;;;1.42;;
50900;SDS011;36879;51.416;6.678;2022-09-30T15:35:10;1.42;;;0.93;;
50900;SDS011;36879;51.416;6.678;2022-09-30T15:37:37;2.33;;;1.13;;
50900;SDS011;36879;51.416;6.678;2022-09-30T15:40:11;3.20;;;1.00;;
50900;SDS011;36879;51.416;6.678;2022-09-30T15:42:57;2.05;;;1.10;;
50900;SDS011;36879;51.416;6.678;2022-09-30T15:45:28;2.35;;;1.17;;
50900;SDS011;36879;51.416;6.678;2022-09-30T15:47:59;3.88;;;1.10;;
50900;SDS011;36879;51.416;6.678;2022-09-30T15:53:05;1.83;;;1.15;;
50900;SDS011;36879;51.416;6.678;2022-09-30T15:55:39;1.23;;;1.00;;
50900;SDS011;36879;51.416;6.678;2022-09-30T15:59:08;7.40;;;1.08;;
50900;SDS011;36879;51.416;6.678;2022-09-30T16:01:10;3.83;;;1.10;;
50900;SDS011;36879;51.416;6.678;2022-09-30T16:03:38;3.53;;;0.93;;
50900;SDS011;36879;51.416;6.678;2022-09-30T16:06:11;3.17;;;1.10;;
50900;SDS011;36879;51.416;6.678;2022-09-30T16:08:40;2.95;;;1.30;;
50900;SDS011;36879;51.416;6.678;2022-09-30T16:11:07;2.50;;;1.40;;
50900;SDS011;36879;51.416;6.678;2022-09-30T16:13:33;3.33;;;1.30;;
50900;SDS011;36879;51.416;6.678;2022-09-30T16:16:01;3.15;;;1.17;;
50900;SDS011;36879;51.416;6.678;2022-09-30T16:18:28;3.80;;;1.40;;
50900;SDS011;36879;51.416;6.678;2022-09-30T16:20:56;2.42;;;1.10;;
50900;SDS011;36879;51.416;6.678;2022-09-30T16:23:27;2.42;;;1.25;;
50900;SDS011;36879;51.416;6.678;2022-09-30T16:28:38;2.60;;;1.35;;
50900;SDS011;36879;51.416;6.678;2022-09-30T16:31:04;2.30;;;1.23;;
50900;SDS011;36879;51.416;6.678;2022-09-30T16:33:31;1.42;;;1.05;;
50900;SDS011;36879;51.416;6.678;2022-09-30T16:35:58;8.23;;;1.23;;
50900;SDS011;36879;51.416;6.678;2022-09-30T16:38:25;3.40;;;1.00;;
50900;SDS011;36879;51.416;6.678;2022-09-30T16:40:50;3.55;;;1.30;;
50900;SDS011;36879;51.416;6.678;2022-09-30T16:43:16;2.17;;;1.23;;
50900;SDS011;36879;51.416;6.678;2022-09-30T16:45:42;2.00;;;1.08;;
50900;SDS011;36879;51.416;6.678;2022-09-30T16:48:15;1.77;;;1.13;;
50900;SDS011;36879;51.416;6.678;2022-09-30T16:50:42;1.50;;;0.88;;
50900;SDS011;36879;51.416;6.678;2022-09-30T16:53:11;1.88;;;1.17;;
50900;SDS011;36879;51.416;6.678;2022-09-30T16:55:37;3.33;;;1.23;;
50900;SDS011;36879;51.416;6.678;2022-09-30T16:58:04;1.92;;;0.98;;
50900;SDS011;36879;51.416;6.678;2022-09-30T17:00:30;2.15;;;1.10;;
50900;SDS011;36879;51.416;6.678;2022-09-30T17:02:57;2.75;;;1.17;;
50900;SDS011;36879;51.416;6.678;2022-09-30T17:05:24;3.47;;;1.67;;
50900;SDS011;36879;51.416;6.678;2022-09-30T17:07:51;2.28;;;1.42;;
50900;SDS011;36879;51.416;6.678;2022-09-30T17:10:19;4.35;;;1.20;;
50900;SDS011;36879;51.416;6.678;2022-09-30T17:12:46;3.03;;;1.30;;
50900;SDS011;36879;51.416;6.678;2022-09-30T17:15:14;1.58;;;0.80;;
50900;SDS011;36879;51.416;6.678;2022-09-30T17:17:40;2.58;;;1.35;;
50900;SDS011;36879;51.416;6.678;2022-09-30T17:20:06;1.90;;;1.10;;
50900;SDS011;36879;51.416;6.678;2022-09-30T17:22:33;1.90;;;1.30;;
50900;SDS011;36879;51.416;6.678;2022-09-30T17:24:59;1.65;;;1.10;;
50900;SDS011;36879;51.416;6.678;2022-09-30T17:27:25;2.05;;;1.30;;
50900;SDS011;36879;51.416;6.678;2022-09-30T17:29:51;2.30;;;1.40;;
50900;SDS011;36879;51.416;6.678;2022-09-30T17:32:17;3.20;;;1.35;;
50900;SDS011;36879;51.416;6.678;2022-09-30T17:34:43;1.88;;;1.08;;
50900;SDS011;36879;51.416;6.678;2022-09-30T17:37:10;1.55;;;1.05;;
50900;SDS011;36879;51.416;6.678;2022-09-30T17:39:38;1.70;;;1.15;;
50900;SDS011;36879;51.416;6.678;2022-09-30T17:42:05;2.72;;;1.05;;
50900;SDS011;36879;51.416;6.678;2022-09-30T17:44:50;2.10;;;1.33;;
50900;SDS011;36879;51.416;6.678;2022-09-30T17:47:16;5.53;;;1.33;;
50900;SDS011;36879;51.416;6.678;2022-09-30T17:49:42;1.80;;;1.27;;
50900;SDS011;36879;51.416;6.678;2022-09-30T17:52:08;2.03;;;1.40;;
50900;SDS011;36879;51.416;6.678;2022-09-30T17:54:37;1.65;;;1.05;;
50900;SDS011;36879;51.416;6.678;2022-09-30T17:57:03;2.90;;;1.23;;
50900;SDS011;36879;51.416;6.678;2022-09-30T17:59:29;3.97;;;1.30;;
50900;SDS011;36879;51.416;6.678;2022-09-30T18:01:55;2.08;;;1.35;;
50900;SDS011;36879;51.416;6.678;2022-09-30T18:04:21;2.30;;;1.45;;
50900;SDS011;36879;51.416;6.678;2022-09-30T18:06:50;4.63;;;1.33;;
50900;SDS011;36879;51.416;6.678;2022-09-30T18:09:16;2.88;;;1.20;;
50900;SDS011;36879;51.416;6.678;2022-09-30T18:11:42;3.20;;;1.58;;
50900;SDS011;36879;51.416;6.678;2022-09-30T18:14:09;1.75;;;1.20;;
50900;SDS011;36879;51.416;6.678;2022-09-30T18:16:35;4.38;;;1.45;;
50900;SDS011;36879;51.416;6.678;2022-09-30T18:19:02;1.98;;;1.17;;
50900;SDS011;36879;51.416;6.678;2022-09-30T18:21:28;1.40;;;1.10;;
50900;SDS011;36879;51.416;6.678;2022-09-30T18:23:54;3.08;;;1.40;;
50900;SDS011;36879;51.416;6.678;2022-09-30T18:26:24;4.90;;;1.70;;
50900;SDS011;36879;51.416;6.678;2022-09-30T18:28:52;5.28;;;1.52;;
50900;SDS011;36879;51.416;6.678;2022-09-30T18:31:20;2.60;;;1.38;;
50900;SDS011;36879;51.416;6.678;2022-09-30T18:33:56;2.17;;;1.23;;